^^
Saratoga-Weather Station Historical Data
Daily Summary for October 24, 2021 Units:  English    Metric   Both
Daily Weekly Monthly Yearly Custom
  High: Low: Average:
Temperature: 52.7 °F 35.2 °F 42.3 °F
Dew Point: 46.6 °F 34.2 °F 39.9 °F
Humidity: 97% 76% 92%
Wind Speed: 4.9mph 0mph 0.4mph
Wind Gust: 9mph - -
Wind- - ESE
Pressure: 30.3 in 30.2 in -
Precipitation: 0 in    
Historical Graphs
 
 
Tabular Data for October 24, 2021
Time Temperature Dew Point Pressure Wind Wind Speed Wind Gust Humidity Rainfall Rate (Hourly) solar
00:03 40.6 °F 39.6 °F 30.3 in Calm     96% 0 in 0 W/m2
00:08 40.6 °F 39.6 °F 30.3 in Calm     96% 0 in 0 W/m2
00:13 40.6 °F 39.4 °F 30.3 in Calm     95% 0 in 0 W/m2
00:18 40.5 °F 39.2 °F 30.3 in Calm     95% 0 in 0 W/m2
00:23 40.5 °F 39.2 °F 30.3 in Calm     95% 0 in 0 W/m2
00:28 40.3 °F 39 °F 30.3 in Calm     95% 0 in 0 W/m2
00:33 40.3 °F 39 °F 30.3 in SSE 2 mph 2 mph 95% 0 in 0 W/m2
00:38 40.3 °F 39 °F 30.3 in Calm   1 mph 95% 0 in 0 W/m2
00:43 40.3 °F 39 °F 30.3 in Calm   2 mph 95% 0 in 0 W/m2
00:48 40.3 °F 39.2 °F 30.3 in Calm     96% 0 in 0 W/m2
00:53 40.1 °F 39 °F 30.3 in Calm     96% 0 in 0 W/m2
00:58 39.9 °F 38.8 °F 30.3 in SSE 0.9 mph 2 mph 96% 0 in 0 W/m2
01:03 39.9 °F 38.8 °F 30.3 in Calm   1 mph 96% 0 in 0 W/m2
01:08 39.9 °F 38.7 °F 30.3 in Calm   2 mph 95% 0 in 0 W/m2
01:13 39.7 °F 38.5 °F 30.3 in Calm     95% 0 in 0 W/m2
01:18 39.7 °F 38.7 °F 30.3 in Calm     96% 0 in 0 W/m2
01:23 39.6 °F 38.5 °F 30.3 in South 0.9 mph 2 mph 96% 0 in 0 W/m2
01:28 39.6 °F 38.5 °F 30.3 in South 0.9 mph 2 mph 96% 0 in 0 W/m2
01:33 39.6 °F 38.5 °F 30.3 in Calm   1 mph 96% 0 in 0 W/m2
01:38 39.6 °F 38.5 °F 30.3 in Calm   2 mph 96% 0 in 0 W/m2
01:43 39.6 °F 38.5 °F 30.3 in Calm     96% 0 in 0 W/m2
01:48 39.4 °F 38.3 °F 30.3 in Calm     96% 0 in 0 W/m2
01:53 39.4 °F 38.3 °F 30.3 in Calm     96% 0 in 0 W/m2
01:58 39.2 °F 38.1 °F 30.3 in Calm     96% 0 in 0 W/m2
02:03 39 °F 37.9 °F 30.3 in Calm     96% 0 in 0 W/m2
02:08 39 °F 37.9 °F 30.3 in Calm     96% 0 in 0 W/m2
02:13 38.8 °F 37.8 °F 30.3 in Calm     96% 0 in 0 W/m2
02:18 38.8 °F 37.8 °F 30.3 in Calm     96% 0 in 0 W/m2
02:23 38.8 °F 37.8 °F 30.3 in Calm     96% 0 in 0 W/m2
02:28 38.7 °F 37.6 °F 30.3 in Calm     96% 0 in 0 W/m2
02:33 38.7 °F 37.6 °F 30.3 in Calm     96% 0 in 0 W/m2
02:38 38.7 °F 37.6 °F 30.3 in Calm     96% 0 in 0 W/m2
02:43 38.7 °F 37.6 °F 30.3 in Calm     96% 0 in 0 W/m2
02:48 38.7 °F 37.6 °F 30.3 in Calm     96% 0 in 0 W/m2
02:54 38.5 °F 37.4 °F 30.3 in Calm     96% 0 in 0 W/m2
02:59 38.7 °F 37.6 °F 30.3 in Calm     96% 0 in 0 W/m2
03:04 38.5 °F 37.4 °F 30.3 in Calm   1 mph 96% 0 in 0 W/m2
03:09 38.5 °F 37.4 °F 30.3 in Calm     96% 0 in 0 W/m2
03:14 38.5 °F 37.4 °F 30.3 in Calm   1 mph 96% 0 in 0 W/m2
03:19 38.5 °F 37.4 °F 30.3 in Calm     96% 0 in 0 W/m2
03:24 38.3 °F 37.2 °F 30.3 in Calm     96% 0 in 0 W/m2
03:29 38.3 °F 37.2 °F 30.3 in Calm     96% 0 in 0 W/m2
03:34 38.1 °F 37 °F 30.3 in Calm     96% 0 in 0 W/m2
03:39 38.1 °F 37 °F 30.3 in Calm     96% 0 in 0 W/m2
03:44 38.1 °F 37 °F 30.3 in Calm     96% 0 in 0 W/m2
03:49 37.9 °F 36.9 °F 30.3 in Calm     96% 0 in 0 W/m2
03:54 37.9 °F 36.9 °F 30.3 in Calm     96% 0 in 0 W/m2
03:59 37.8 °F 36.7 °F 30.3 in Calm     96% 0 in 0 W/m2
04:04 37.8 °F 36.7 °F 30.3 in Calm     96% 0 in 0 W/m2
04:09 37.6 °F 36.5 °F 30.3 in Calm     96% 0 in 0 W/m2
04:14 37.6 °F 36.5 °F 30.3 in Calm     96% 0 in 0 W/m2
04:19 37.4 °F 36.3 °F 30.3 in Calm     96% 0 in 0 W/m2
04:24 37.2 °F 36.1 °F 30.3 in Calm     96% 0 in 0 W/m2
04:29 37.2 °F 36.1 °F 30.3 in Calm     96% 0 in 0 W/m2
04:34 37 °F 36 °F 30.3 in Calm     96% 0 in 0 W/m2
04:39 37 °F 36 °F 30.3 in Calm     96% 0 in 0 W/m2
04:44 37 °F 36 °F 30.3 in Calm     96% 0 in 0 W/m2
04:49 37 °F 36 °F 30.3 in Calm     96% 0 in 0 W/m2
04:54 37 °F 36 °F 30.3 in Calm     96% 0 in 0 W/m2
04:59 37 °F 36 °F 30.3 in Calm     96% 0 in 0 W/m2
05:04 37 °F 36 °F 30.3 in Calm     96% 0 in 0 W/m2
05:09 37 °F 36 °F 30.3 in Calm     96% 0 in 0 W/m2
05:14 37 °F 36 °F 30.3 in Calm     96% 0 in 0 W/m2
05:19 36.9 °F 35.8 °F 30.3 in Calm     96% 0 in 0 W/m2
05:24 36.9 °F 35.8 °F 30.3 in Calm     96% 0 in 0 W/m2
05:29 36.9 °F 35.8 °F 30.3 in Calm     96% 0 in 0 W/m2
05:34 36.9 °F 35.8 °F 30.3 in Calm     96% 0 in 0 W/m2
05:39 36.7 °F 35.6 °F 30.3 in Calm     96% 0 in 0 W/m2
05:44 36.7 °F 35.6 °F 30.3 in Calm     96% 0 in 0 W/m2
05:49 36.5 °F 35.4 °F 30.3 in Calm     96% 0 in 0 W/m2
05:54 36.3 °F 35.2 °F 30.3 in Calm     96% 0 in 0 W/m2
05:59 36.3 °F 35.2 °F 30.3 in Calm     96% 0 in 0 W/m2
06:04 36.3 °F 35.2 °F 30.3 in Calm     96% 0 in 0 W/m2
06:09 36.1 °F 35.1 °F 30.3 in Calm     96% 0 in 0 W/m2
06:14 36.1 °F 35.1 °F 30.3 in Calm     96% 0 in 0 W/m2
06:19 36 °F 34.9 °F 30.3 in Calm     96% 0 in 0 W/m2
06:24 35.8 °F 34.7 °F 30.3 in Calm     96% 0 in 0 W/m2
06:29 35.8 °F 34.7 °F 30.3 in Calm     96% 0 in 0 W/m2
06:34 35.6 °F 34.5 °F 30.3 in Calm     96% 0 in 0 W/m2
06:39 35.6 °F 34.5 °F 30.3 in Calm     96% 0 in 0 W/m2
06:44 35.6 °F 34.5 °F 30.3 in Calm     96% 0 in 0 W/m2
06:49 35.4 °F 34.3 °F 30.3 in Calm     96% 0 in 0 W/m2
06:54 35.2 °F 34.2 °F 30.3 in Calm     96% 0 in 0 W/m2
06:59 35.2 °F 34.2 °F 30.3 in Calm     96% 0 in 0 W/m2
07:04 35.2 °F 34.2 °F 30.3 in Calm     96% 0 in 0 W/m2
07:09 35.2 °F 34.2 °F 30.3 in Calm     96% 0 in 0 W/m2
07:14 35.2 °F 34.2 °F 30.3 in Calm     96% 0 in 0 W/m2
07:19 35.2 °F 34.2 °F 30.3 in Calm     96% 0 in 0 W/m2
07:24 35.2 °F 34.2 °F 30.3 in Calm     96% 0 in 0 W/m2
07:29 35.2 °F 34.2 °F 30.3 in Calm     96% 0 in 0 W/m2
07:34 35.4 °F 34.3 °F 30.3 in Calm     96% 0 in 0 W/m2
07:39 35.4 °F 34.3 °F 30.3 in Calm     96% 0 in 0 W/m2
07:44 35.4 °F 34.3 °F 30.3 in Calm     96% 0 in 0 W/m2
07:49 35.6 °F 34.5 °F 30.3 in Calm     96% 0 in 0 W/m2
07:54 35.8 °F 34.7 °F 30.3 in Calm     96% 0 in 0 W/m2
07:59 36 °F 35.2 °F 30.3 in Calm     97% 0 in 0 W/m2
08:04 36 °F 35.2 °F 30.3 in Calm     97% 0 in 0 W/m2
08:09 36 °F 35.2 °F 30.3 in Calm     97% 0 in 0 W/m2
08:14 36 °F 35.2 °F 30.3 in Calm     97% 0 in 5 W/m2
08:19 35.8 °F 34.7 °F 30.3 in Calm     96% 0 in 7 W/m2
08:24 36 °F 35.2 °F 30.3 in Calm     97% 0 in 9 W/m2
08:29 36.1 °F 35.4 °F 30.3 in Calm   1 mph 97% 0 in 11 W/m2
08:34 36.1 °F 35.1 °F 30.3 in Calm   1 mph 96% 0 in 12 W/m2
08:39 36.1 °F 35.1 °F 30.3 in Calm     96% 0 in 12 W/m2
08:44 36.1 °F 35.1 °F 30.3 in Calm     96% 0 in 14 W/m2
08:49 36.1 °F 35.1 °F 30.3 in Calm     96% 0 in 16 W/m2
08:54 36.1 °F 35.1 °F 30.3 in Calm     96% 0 in 18 W/m2
08:59 36.1 °F 35.4 °F 30.3 in Calm     97% 0 in 18 W/m2
09:04 36.1 °F 35.1 °F 30.3 in Calm     96% 0 in 30 W/m2
09:09 36.1 °F 35.1 °F 30.3 in Calm     96% 0 in 79 W/m2
09:14 36.3 °F 35.2 °F 30.3 in Calm     96% 0 in 91 W/m2
09:19 36.7 °F 36 °F 30.3 in Calm     97% 0 in 102 W/m2
09:24 36.7 °F 36 °F 30.3 in Calm     97% 0 in 30 W/m2
09:29 36.9 °F 36.1 °F 30.3 in Calm     97% 0 in 23 W/m2
09:34 36.7 °F 36 °F 30.3 in Calm     97% 0 in 25 W/m2
09:39 36.7 °F 36 °F 30.3 in Calm     97% 0 in 25 W/m2
09:44 36.9 °F 36.1 °F 30.3 in SE 1 mph 1 mph 97% 0 in 44 W/m2
09:49 37 °F 36.3 °F 30.3 in Calm     97% 0 in 30 W/m2
09:54 37.6 °F 36.9 °F 30.3 in Calm   4 mph 97% 0 in 185 W/m2
09:59 37.9 °F 37.2 °F 30.3 in Calm   3 mph 97% 0 in 209 W/m2
10:04 38.5 °F 37.8 °F 30.3 in Calm   2 mph 97% 0 in 220 W/m2
10:09 38.8 °F 38.1 °F 30.3 in ESE 0.9 mph 2 mph 97% 0 in 232 W/m2
10:14 39 °F 38.3 °F 30.3 in ESE 2 mph 2 mph 97% 0 in 244 W/m2
10:19 39.6 °F 38.8 °F 30.3 in East 2 mph 3 mph 97% 0 in 251 W/m2
10:24 39.6 °F 38.8 °F 30.3 in Calm   2 mph 97% 0 in 107 W/m2
10:29 39.6 °F 38.8 °F 30.3 in ENE 2.9 mph 3 mph 97% 0 in 65 W/m2
10:34 39.6 °F 38.8 °F 30.3 in East 0.9 mph 2 mph 97% 0 in 264 W/m2
10:39 39.7 °F 39 °F 30.3 in NE 0.9 mph 3 mph 97% 0 in 236 W/m2
10:44 39.9 °F 39.2 °F 30.3 in NE 0.9 mph 3 mph 97% 0 in 169 W/m2
10:49 40.3 °F 39.6 °F 30.3 in NE 0.9 mph 2 mph 97% 0 in 47 W/m2
10:54 40.3 °F 39.6 °F 30.3 in Calm   3 mph 97% 0 in 37 W/m2
10:59 40.3 °F 39.2 °F 30.3 in Calm   2 mph 96% 0 in 35 W/m2
11:04 40.5 °F 39.4 °F 30.3 in NW 0.9 mph 2 mph 96% 0 in 33 W/m2
11:09 40.5 °F 39.4 °F 30.3 in Calm     96% 0 in 35 W/m2
11:14 40.5 °F 39.2 °F 30.3 in Calm     95% 0 in 33 W/m2
11:19 40.6 °F 39.4 °F 30.3 in Calm     95% 0 in 32 W/m2
11:24 40.8 °F 39.6 °F 30.3 in East 2 mph 4 mph 95% 0 in 32 W/m2
11:29 41.5 °F 40.3 °F 30.3 in ESE 0.9 mph 4 mph 95% 0 in 32 W/m2
11:34 42.3 °F 40.6 °F 30.3 in NE 2.9 mph 4 mph 94% 0 in 37 W/m2
11:39 42.8 °F 41 °F 30.3 in ESE 0.9 mph 3 mph 93% 0 in 32 W/m2
11:44 43.2 °F 41 °F 30.3 in Calm   3 mph 92% 0 in 33 W/m2
11:49 43.3 °F 40.8 °F 30.3 in ENE 2.9 mph 4 mph 91% 0 in 33 W/m2
11:54 43.7 °F 41.2 °F 30.3 in ENE 0.9 mph 6 mph 91% 0 in 33 W/m2
12:00 44.2 °F 41.2 °F 30.3 in NE 0.9 mph 3 mph 89% 0 in 33 W/m2
12:05 44.4 °F 41.2 °F 30.3 in SE 4.9 mph 6 mph 88% 0 in 33 W/m2
12:10 45 °F 41.5 °F 30.3 in SE 2 mph 4 mph 88% 0 in 33 W/m2
12:15 45 °F 41.4 °F 30.3 in Calm   6 mph 87% 0 in 33 W/m2
12:20 45.1 °F 41.5 °F 30.3 in ESE 0.9 mph 4 mph 87% 0 in 33 W/m2
12:25 45.3 °F 41.4 °F 30.3 in ESE 0.9 mph 8 mph 86% 0 in 46 W/m2
12:30 45.7 °F 41.7 °F 30.3 in South 2.9 mph 4 mph 86% 0 in 39 W/m2
12:35 46 °F 41.7 °F 30.3 in ESE 4 mph 5 mph 85% 0 in 83 W/m2
12:40 46.4 °F 41.9 °F 30.3 in ESE 0.9 mph 6 mph 84% 0 in 186 W/m2
12:45 46.8 °F 42.3 °F 30.3 in Calm   4 mph 84% 0 in 216 W/m2
12:50 47.1 °F 42.6 °F 30.3 in Calm   2 mph 84% 0 in 295 W/m2
12:55 47.7 °F 42.8 °F 30.3 in ESE 4 mph 6 mph 83% 0 in 114 W/m2
13:00 47.8 °F 42.3 °F 30.3 in SE 2.9 mph 7 mph 81% 0 in 37 W/m2
13:05 48 °F 42.4 °F 30.3 in ESE 4 mph 7 mph 81% 0 in 42 W/m2
13:10 48 °F 42.4 °F 30.3 in Calm   2 mph 81% 0 in 46 W/m2
13:15 48.4 °F 42.8 °F 30.2 in NNW 0.9 mph 7 mph 81% 0 in 77 W/m2
13:20 48.6 °F 42.6 °F 30.2 in ESE 2 mph 6 mph 80% 0 in 42 W/m2
13:25 48.6 °F 42.6 °F 30.2 in SE 2 mph 3 mph 80% 0 in 35 W/m2
13:30 48.7 °F 42.8 °F 30.2 in ESE 0.9 mph 6 mph 80% 0 in 33 W/m2
13:35 48.9 °F 43 °F 30.2 in ESE 0.9 mph 3 mph 80% 0 in 35 W/m2
13:40 49.1 °F 43.2 °F 30.2 in NE 0.9 mph 4 mph 80% 0 in 33 W/m2
13:45 49.3 °F 43.3 °F 30.2 in NE 0.9 mph 4 mph 80% 0 in 65 W/m2
13:50 49.6 °F 43.7 °F 30.2 in Calm   1 mph 80% 0 in 35 W/m2
13:55 49.6 °F 44.1 °F 30.2 in East 0.9 mph 2 mph 81% 0 in 35 W/m2
14:00 49.8 °F 43.9 °F 30.2 in Calm   4 mph 80% 0 in 35 W/m2
14:05 50.2 °F 44.2 °F 30.2 in Calm   4 mph 80% 0 in 35 W/m2
14:10 50.4 °F 44.1 °F 30.2 in Calm   3 mph 79% 0 in 60 W/m2
14:15 50.5 °F 43.9 °F 30.2 in SSE 2.9 mph 7 mph 78% 0 in 46 W/m2
14:20 51.1 °F 44.4 °F 30.2 in East 2 mph 9 mph 78% 0 in 58 W/m2
14:25 51.3 °F 44.2 °F 30.2 in WSW 2 mph 3 mph 77% 0 in 67 W/m2
14:30 51.4 °F 44.4 °F 30.2 in ESE 0.9 mph 9 mph 77% 0 in 56 W/m2
14:35 51.6 °F 44.2 °F 30.2 in Calm   2 mph 76% 0 in 35 W/m2
14:40 51.8 °F 44.4 °F 30.2 in Calm   1 mph 76% 0 in 37 W/m2
14:45 52 °F 44.6 °F 30.2 in Calm   2 mph 76% 0 in 33 W/m2
14:50 52 °F 44.6 °F 30.2 in East 2 mph 3 mph 76% 0 in 54 W/m2
14:55 52.2 °F 44.8 °F 30.2 in East 2 mph 3 mph 76% 0 in 32 W/m2
15:00 52.2 °F 44.8 °F 30.2 in ENE 0.9 mph 2 mph 76% 0 in 32 W/m2
15:05 52.2 °F 44.8 °F 30.2 in SE 0.9 mph 4 mph 76% 0 in 32 W/m2
15:10 52.2 °F 44.8 °F 30.2 in Calm   2 mph 76% 0 in 32 W/m2
15:15 52.2 °F 44.8 °F 30.2 in ENE 0.9 mph 3 mph 76% 0 in 32 W/m2
15:20 52.2 °F 44.8 °F 30.2 in ESE 0.9 mph 2 mph 76% 0 in 32 W/m2
15:25 52.3 °F 45 °F 30.2 in Calm   3 mph 76% 0 in 32 W/m2
15:30 52.3 °F 45 °F 30.2 in ENE 0.9 mph 5 mph 76% 0 in 35 W/m2
15:35 52.5 °F 45.9 °F 30.2 in Calm     78% 0 in 32 W/m2
15:40 52.3 °F 45.7 °F 30.2 in ENE 0.9 mph 3 mph 78% 0 in 35 W/m2
15:45 52.3 °F 45.7 °F 30.2 in ENE 4 mph 4 mph 78% 0 in 30 W/m2
15:50 52.3 °F 45.7 °F 30.2 in Calm   3 mph 78% 0 in 30 W/m2
15:55 52.3 °F 45.7 °F 30.2 in Calm   2 mph 78% 0 in 30 W/m2
16:01 52.3 °F 45.7 °F 30.2 in ESE 2 mph 3 mph 78% 0 in 30 W/m2
16:06 52.5 °F 45.9 °F 30.2 in East 2 mph 4 mph 78% 0 in 30 W/m2
16:11 52.5 °F 45.5 °F 30.2 in Calm   2 mph 77% 0 in 30 W/m2
16:16 52.7 °F 46 °F 30.2 in East 2.9 mph 3 mph 78% 0 in 28 W/m2
16:21 52.5 °F 45.9 °F 30.2 in ESE 2 mph 6 mph 78% 0 in 28 W/m2
16:26 52.5 °F 45.9 °F 30.2 in Calm   2 mph 78% 0 in 28 W/m2
16:31 52.5 °F 46.2 °F 30.2 in Calm   6 mph 79% 0 in 26 W/m2
16:36 52.3 °F 46.4 °F 30.2 in SW 0.9 mph 1 mph 80% 0 in 26 W/m2
16:41 52.2 °F 46.6 °F 30.2 in Calm   2 mph 81% 0 in 26 W/m2
16:46 51.8 °F 46.2 °F 30.2 in Calm     81% 0 in 25 W/m2
16:51 51.4 °F 46.2 °F 30.2 in Calm   2 mph 82% 0 in 25 W/m2
16:56 51.3 °F 46.2 °F 30.2 in Calm     83% 0 in 25 W/m2
17:01 51.1 °F 46 °F 30.2 in Calm   2 mph 83% 0 in 23 W/m2
17:06 50.7 °F 46 °F 30.2 in Calm     84% 0 in 21 W/m2
17:11 50.4 °F 45.7 °F 30.2 in Calm   1 mph 84% 0 in 21 W/m2
17:16 50.2 °F 45.5 °F 30.2 in Calm   1 mph 84% 0 in 21 W/m2
17:21 49.8 °F 45.5 °F 30.2 in Calm     85% 0 in 19 W/m2
17:26 49.5 °F 45.5 °F 30.2 in South 0.9 mph 1 mph 86% 0 in 19 W/m2
17:31 49.3 °F 45.3 °F 30.2 in Calm     86% 0 in 18 W/m2
17:36 48.9 °F 45.1 °F 30.2 in Calm   1 mph 87% 0 in 18 W/m2
17:41 48.7 °F 45 °F 30.2 in Calm     87% 0 in 16 W/m2
17:46 48.6 °F 44.8 °F 30.2 in Calm   1 mph 87% 0 in 16 W/m2
17:51 48.4 °F 45 °F 30.2 in Calm     88% 0 in 14 W/m2
17:56 48 °F 44.6 °F 30.2 in Calm     88% 0 in 14 W/m2
18:01 47.8 °F 44.8 °F 30.2 in Calm     89% 0 in 12 W/m2
18:06 47.7 °F 44.6 °F 30.2 in Calm     89% 0 in 12 W/m2
18:11 47.7 °F 44.6 °F 30.2 in Calm     89% 0 in 11 W/m2
18:16 47.5 °F 44.8 °F 30.2 in Calm     90% 0 in 9 W/m2
18:21 47.5 °F 44.8 °F 30.2 in South 2 mph 2 mph 90% 0 in 7 W/m2
18:26 47.1 °F 44.4 °F 30.2 in Calm     90% 0 in 5 W/m2
18:31 46.9 °F 44.2 °F 30.2 in Calm     90% 0 in 0 W/m2
18:36 46.9 °F 44.2 °F 30.2 in Calm     90% 0 in 0 W/m2
18:41 46.8 °F 44.2 °F 30.2 in Calm     91% 0 in 0 W/m2
18:46 46.6 °F 44.1 °F 30.2 in Calm     91% 0 in 0 W/m2
18:51 46.4 °F 43.9 °F 30.2 in Calm     91% 0 in 0 W/m2
18:56 46.2 °F 43.7 °F 30.2 in Calm     91% 0 in 0 W/m2
19:01 46 °F 43.5 °F 30.2 in Calm     91% 0 in 0 W/m2
19:06 46 °F 43.9 °F 30.2 in Calm     92% 0 in 0 W/m2
19:11 45.9 °F 43.7 °F 30.2 in Calm     92% 0 in 0 W/m2
19:16 45.7 °F 43.5 °F 30.2 in Calm     92% 0 in 0 W/m2
19:21 45.3 °F 43.2 °F 30.2 in Calm     92% 0 in 0 W/m2
19:26 45.1 °F 43 °F 30.2 in Calm     92% 0 in 0 W/m2
19:31 45 °F 42.8 °F 30.2 in Calm     92% 0 in 0 W/m2
19:36 45 °F 43 °F 30.2 in Calm     93% 0 in 0 W/m2
19:41 45 °F 43 °F 30.2 in Calm     93% 0 in 0 W/m2
19:46 44.8 °F 42.8 °F 30.2 in Calm     93% 0 in 0 W/m2
19:51 44.6 °F 42.6 °F 30.2 in Calm     93% 0 in 0 W/m2
19:56 44.4 °F 42.4 °F 30.2 in Calm     93% 0 in 0 W/m2
20:01 44.2 °F 42.3 °F 30.2 in Calm     93% 0 in 0 W/m2
20:06 44.1 °F 42.1 °F 30.2 in Calm     93% 0 in 0 W/m2
20:11 43.9 °F 41.9 °F 30.2 in Calm     93% 0 in 0 W/m2
20:16 43.9 °F 41.9 °F 30.2 in Calm     93% 0 in 0 W/m2
20:21 43.7 °F 41.7 °F 30.2 in Calm     93% 0 in 0 W/m2
20:26 43.5 °F 41.9 °F 30.2 in Calm     94% 0 in 0 W/m2
20:31 43.3 °F 41.7 °F 30.2 in Calm     94% 0 in 0 W/m2
20:36 43.2 °F 41.5 °F 30.2 in Calm     94% 0 in 0 W/m2
20:41 43.2 °F 41.5 °F 30.2 in Calm     94% 0 in 0 W/m2
20:46 43 °F 41.4 °F 30.2 in Calm     94% 0 in 0 W/m2
20:51 42.6 °F 41 °F 30.2 in Calm     94% 0 in 0 W/m2
20:56 42.6 °F 41 °F 30.2 in Calm     94% 0 in 0 W/m2
21:01 42.4 °F 40.8 °F 30.2 in Calm     94% 0 in 0 W/m2
21:06 42.3 °F 40.6 °F 30.2 in Calm     94% 0 in 0 W/m2
21:12 42.3 °F 40.6 °F 30.2 in Calm     94% 0 in 0 W/m2
21:17 42.3 °F 40.6 °F 30.2 in Calm     94% 0 in 0 W/m2
21:22 42.1 °F 40.8 °F 30.2 in Calm     95% 0 in 0 W/m2
21:27 42.1 °F 40.8 °F 30.2 in Calm     95% 0 in 0 W/m2
21:32 42.1 °F 40.8 °F 30.2 in Calm     95% 0 in 0 W/m2
21:37 41.9 °F 40.6 °F 30.2 in Calm     95% 0 in 0 W/m2
21:42 41.7 °F 40.5 °F 30.2 in Calm     95% 0 in 0 W/m2
21:47 41.5 °F 40.3 °F 30.2 in Calm     95% 0 in 0 W/m2
21:52 41.5 °F 40.3 °F 30.2 in Calm     95% 0 in 0 W/m2
21:57 41.4 °F 40.1 °F 30.2 in Calm     95% 0 in 0 W/m2
22:02 41.2 °F 39.9 °F 30.2 in Calm     95% 0 in 0 W/m2
22:07 41.2 °F 39.9 °F 30.2 in Calm     95% 0 in 0 W/m2
22:12 40.8 °F 39.6 °F 30.2 in Calm     95% 0 in 0 W/m2
22:17 40.8 °F 39.6 °F 30.2 in Calm     95% 0 in 0 W/m2
22:22 40.6 °F 39.4 °F 30.2 in Calm     95% 0 in 0 W/m2
22:27 40.6 °F 39.4 °F 30.2 in Calm     95% 0 in 0 W/m2
22:32 40.6 °F 39.4 °F 30.2 in Calm     95% 0 in 0 W/m2
22:37 40.5 °F 39.2 °F 30.2 in Calm     95% 0 in 0 W/m2
22:42 40.5 °F 39.2 °F 30.2 in Calm     95% 0 in 0 W/m2
22:47 40.3 °F 39 °F 30.2 in Calm     95% 0 in 0 W/m2
22:52 40.1 °F 38.8 °F 30.2 in Calm     95% 0 in 0 W/m2
22:57 39.9 °F 38.7 °F 30.2 in Calm     95% 0 in 0 W/m2
23:02 39.9 °F 38.7 °F 30.2 in Calm     95% 0 in 0 W/m2
23:07 39.7 °F 38.5 °F 30.2 in Calm     95% 0 in 0 W/m2
23:12 39.7 °F 38.5 °F 30.2 in Calm     95% 0 in 0 W/m2
23:17 39.7 °F 38.5 °F 30.2 in Calm     95% 0 in 0 W/m2
23:22 39.6 °F 38.3 °F 30.2 in Calm     95% 0 in 0 W/m2
23:27 39.6 °F 38.3 °F 30.2 in Calm     95% 0 in 0 W/m2
23:32 39.4 °F 38.1 °F 30.2 in Calm     95% 0 in 0 W/m2
23:37 39 °F 37.8 °F 30.2 in Calm     95% 0 in 0 W/m2
23:42 39 °F 37.8 °F 30.2 in Calm     95% 0 in 0 W/m2
23:47 38.8 °F 37.6 °F 30.2 in Calm     95% 0 in 0 W/m2
23:52 38.8 °F 37.6 °F 30.2 in Calm     95% 0 in 0 W/m2
23:57 38.7 °F 37.4 °F 30.2 in Calm     95% 0 in 0 W/m2
Juneau County Weather
Compliments of Weather Underground - 4 mb